Monte Toledo — CQRA — position and weather

sailwx.info

Track history (hours):
 
Tides and Currents Weather Stations Pressure Air Temp Water Temp Dewpoint Dewpoint Depression Visibility Wind Speed Wind Dir Waves Ship Positions

Monte Toledo

Last reported at 2017-Jan-15 23:29 UTC. Time now 2017-Jan-19 00:11 UTC.
Position N 27°51' W 013°48'.

Length 274 m; draft 14.9 m.

Type: Tanker. MMSI: 255740000.

Date/timePositionNaut miles runAvg speedWind from/ knotsBaromVisibWave heightAir tempDewpointWater temp
2017-Jan-15 23:29N 27°51' W 013°48'5113.0
2017-Jan-15 19:32N 28°33' W 013°14'  
2017-Jan-09 23:21N 31°29' W 011°02'1212.8
2017-Jan-09 22:26N 31°20' W 011°09'2512.7
2017-Jan-09 20:29N 30°59' W 011°25'11512.6
2017-Jan-09 11:25N 29°22' W 012°37'1112.9
2017-Jan-09 10:33N 29°13' W 012°44'1312.8
2017-Jan-09 09:32N 29°02' W 012°52'1312.8
2017-Jan-09 08:28N 28°51' W 013°00'1212.7
2017-Jan-09 07:31N 28°41' W 013°08'1312.8
2017-Jan-09 06:32N 28°30' W 013°16'1313.0
2017-Jan-09 05:33N 28°20' W 013°24'1212.5
2017-Jan-09 04:33N 28°09' W 013°31'1312.8
2017-Jan-09 03:33N 27°58' W 013°39'1313.0
2017-Jan-09 02:33N 27°48' W 013°47'1312.7
2017-Jan-09 01:33N 27°37' W 013°55'1212.5
2017-Jan-09 00:33N 27°27' W 014°04'1312.6
2017-Jan-08 23:33N 27°17' W 014°12'1312.7
2017-Jan-08 22:33N 27°06' W 014°20'1312.7
2017-Jan-08 21:33N 26°56' W 014°29'1312.9
2017-Jan-08 20:33N 26°45' W 014°37'  
2017-Jan-06 02:05N 12°59' W 017°40'  
Track history (hours):
 
Tides and Currents Weather Stations Pressure Air Temp Water Temp Dewpoint Dewpoint Depression Visibility Wind Speed Wind Dir Waves Ship Positions

Monte Toledo

Last reported at 2017-Jan-15 23:29 UTC. Time now 2017-Jan-19 00:11 UTC.
Position N 27°51' W 013°48'.

Length 274 m; draft 14.9 m.

Type: Tanker. MMSI: 255740000.

Date/timePositionNaut miles runAvg speedWind from/ knotsBaromVisibWave heightAir tempDewpointWater temp
2017-Jan-15 23:29N 27°51' W 013°48'5113.0
2017-Jan-15 19:32N 28°33' W 013°14'  
2017-Jan-09 23:21N 31°29' W 011°02'1212.8
2017-Jan-09 22:26N 31°20' W 011°09'2512.7
2017-Jan-09 20:29N 30°59' W 011°25'11512.6
2017-Jan-09 11:25N 29°22' W 012°37'1112.9
2017-Jan-09 10:33N 29°13' W 012°44'1312.8
2017-Jan-09 09:32N 29°02' W 012°52'1312.8
2017-Jan-09 08:28N 28°51' W 013°00'1212.7
2017-Jan-09 07:31N 28°41' W 013°08'1312.8
2017-Jan-09 06:32N 28°30' W 013°16'1313.0
2017-Jan-09 05:33N 28°20' W 013°24'1212.5
2017-Jan-09 04:33N 28°09' W 013°31'1312.8
2017-Jan-09 03:33N 27°58' W 013°39'1313.0
2017-Jan-09 02:33N 27°48' W 013°47'1312.7
2017-Jan-09 01:33N 27°37' W 013°55'1212.5
2017-Jan-09 00:33N 27°27' W 014°04'1312.6
2017-Jan-08 23:33N 27°17' W 014°12'1312.7
2017-Jan-08 22:33N 27°06' W 014°20'1312.7
2017-Jan-08 21:33N 26°56' W 014°29'1312.9
2017-Jan-08 20:33N 26°45' W 014°37'  
2017-Jan-06 02:05N 12°59' W 017°40'  

Dump ship's entire track history